Albion, Nebraska
Current Conditions -  °F | °C
As of 10:15 AM on Thursday 18 Dec 2014 (Local Time) from KBVN Reporting Station
Overcast Overcast  
Wind Chill: 19°   Ceiling: 3100
Heat Index: 25°   Visibility: 10mi
Dew Point: 21°   Wind: 5mph
Humidity: 86%   Direction: 180°S
Pressure: 30.2"   Gusts: NA
Location:  41.69°N, 98°W
Report Text: KBVN 181615Z AUTO 18004KT 10SM SCT006 OVC031 M04/M06 A3020 RMK AO2 T10401060
Loading
Personal Weather Stations






























Interactive Weather Map New forecast layout! Learn more

10-Day Weather Forecast

Advertisements
Track Severe Weather on mobile